createdAt,value
2023-04-22T00:00:51.025Z,10.00
2023-04-22T00:03:18.382Z,10.00
2023-04-22T00:05:45.852Z,10.00
2023-04-22T00:08:19.716Z,10.00
2023-04-22T00:10:47.228Z,10.00
2023-04-22T00:13:14.472Z,9.90
2023-04-22T00:15:41.722Z,9.90
2023-04-22T00:18:13.769Z,9.80
2023-04-22T00:20:43.693Z,9.80
2023-04-22T00:23:11.926Z,9.70
2023-04-22T00:25:40.246Z,9.70
2023-04-22T00:28:07.707Z,9.70
2023-04-22T00:30:35.950Z,9.70
2023-04-22T00:33:03.439Z,9.70
2023-04-22T00:35:30.799Z,9.70
2023-04-22T00:37:58.004Z,9.60
2023-04-22T00:40:25.322Z,9.70
2023-04-22T00:42:53.068Z,9.50
2023-04-22T00:45:21.241Z,9.40
2023-04-22T00:47:49.192Z,9.40
2023-04-22T00:50:16.940Z,9.30
2023-04-22T00:52:44.544Z,9.30
2023-04-22T00:55:12.099Z,9.30
2023-04-22T00:57:40.367Z,9.30
2023-04-22T01:00:10.024Z,9.30
2023-04-22T01:02:40.859Z,9.30
2023-04-22T01:05:11.321Z,9.30
2023-04-22T01:07:38.780Z,9.30
2023-04-22T01:10:06.915Z,9.30
2023-04-22T01:12:34.208Z,9.30
2023-04-22T01:15:04.554Z,9.30
2023-04-22T01:17:33.663Z,9.40
2023-04-22T01:20:04.040Z,9.20
2023-04-22T01:22:37.082Z,9.20
2023-04-22T01:25:04.812Z,9.10
2023-04-22T01:27:33.298Z,9.00
2023-04-22T01:30:00.539Z,9.10
2023-04-22T01:32:30.829Z,9.00
2023-04-22T01:34:59.144Z,9.00
2023-04-22T01:37:26.358Z,9.00
2023-04-22T01:39:53.625Z,9.00
2023-04-22T01:42:21.740Z,9.00
2023-04-22T01:44:49.190Z,9.00
2023-04-22T01:47:16.676Z,9.00
2023-04-22T01:49:43.934Z,8.90
2023-04-22T01:52:13.231Z,8.90
2023-04-22T01:54:41.358Z,8.90
2023-04-22T01:57:13.973Z,8.80
2023-04-22T01:59:42.008Z,8.90
2023-04-22T02:02:09.535Z,8.80
2023-04-22T02:04:36.871Z,8.80
2023-04-22T02:07:04.293Z,8.70
2023-04-22T02:09:34.316Z,8.60
2023-04-22T02:12:02.049Z,8.50
2023-04-22T02:14:29.194Z,8.50
2023-04-22T02:16:56.470Z,8.40
2023-04-22T02:19:23.764Z,8.40
2023-04-22T02:21:51.510Z,8.50
2023-04-22T02:24:18.935Z,8.50
2023-04-22T02:26:47.254Z,8.50
2023-04-22T02:29:14.982Z,8.50
2023-04-22T02:31:42.320Z,8.50
2023-04-22T02:34:10.434Z,8.50
2023-04-22T02:36:37.673Z,8.50
2023-04-22T02:39:06.690Z,8.40
2023-04-22T02:41:35.882Z,8.40
2023-04-22T02:44:03.752Z,8.30
2023-04-22T02:46:31.390Z,8.30
2023-04-22T02:48:58.672Z,8.30
2023-04-22T02:51:26.945Z,8.20
2023-04-22T02:53:54.250Z,8.20
2023-04-22T02:56:21.640Z,8.00
2023-04-22T02:58:48.867Z,8.00
2023-04-22T03:01:16.281Z,7.90
2023-04-22T03:03:44.914Z,7.80
2023-04-22T03:06:18.415Z,7.90
2023-04-22T03:08:45.586Z,7.80
2023-04-22T03:11:13.880Z,7.90
2023-04-22T03:13:42.701Z,7.90
2023-04-22T03:16:10.080Z,7.90
2023-04-22T03:18:39.304Z,7.90
2023-04-22T03:21:07.584Z,7.80
2023-04-22T03:23:35.294Z,7.80
2023-04-22T03:26:02.660Z,7.80
2023-04-22T03:28:30.027Z,7.70
2023-04-22T03:30:57.253Z,7.60
2023-04-22T03:33:24.551Z,7.60
2023-04-22T03:35:56.765Z,7.60
2023-04-22T03:38:25.243Z,7.50
2023-04-22T03:40:52.526Z,7.50
2023-04-22T03:43:36.085Z,7.50
2023-04-22T03:46:08.150Z,7.40
2023-04-22T03:48:38.617Z,7.40
2023-04-22T03:51:12.100Z,7.40
2023-04-22T03:53:42.583Z,7.40
2023-04-22T03:56:13.146Z,7.30
2023-04-22T03:58:45.515Z,7.30
2023-04-22T04:01:13.060Z,7.20
2023-04-22T04:03:42.779Z,7.10
2023-04-22T04:06:11.702Z,7.20
2023-04-22T04:08:39.472Z,7.10
2023-04-22T04:11:09.718Z,7.10
2023-04-22T04:13:36.979Z,7.10
2023-04-22T04:16:16.455Z,7.20
2023-04-22T04:18:46.251Z,7.30
2023-04-22T04:21:14.173Z,7.30
2023-04-22T04:23:47.850Z,7.20
2023-04-22T04:26:18.054Z,7.20
2023-04-22T04:28:49.433Z,7.20
2023-04-22T04:31:18.522Z,7.20
2023-04-22T04:33:46.681Z,7.30
2023-04-22T04:36:14.182Z,7.40
2023-04-22T04:38:42.751Z,7.40
2023-04-22T04:41:10.734Z,7.40
2023-04-22T04:43:40.598Z,7.40
2023-04-22T04:46:25.569Z,7.50
2023-04-22T04:48:54.085Z,7.60
2023-04-22T04:51:21.916Z,7.70
2023-04-22T04:53:53.293Z,7.80
2023-04-22T04:56:20.685Z,7.80
2023-04-22T04:58:48.751Z,7.90
2023-04-22T05:01:20.051Z,8.00
2023-04-22T05:03:48.698Z,8.10
2023-04-22T05:06:18.373Z,8.10
2023-04-22T05:08:53.760Z,8.20
2023-04-22T05:11:21.480Z,8.30
2023-04-22T05:13:51.322Z,8.30
2023-04-22T05:16:25.968Z,8.40
2023-04-22T05:18:53.137Z,8.50
2023-04-22T05:21:20.732Z,8.60
2023-04-22T05:23:48.105Z,8.70
2023-04-22T05:26:15.748Z,8.80
2023-04-22T05:28:44.367Z,8.90
2023-04-22T05:31:11.549Z,9.00
2023-04-22T05:33:38.686Z,9.10
2023-04-22T05:36:06.905Z,9.20
2023-04-22T05:38:35.210Z,9.30
2023-04-22T05:41:02.353Z,9.50
2023-04-22T05:43:29.814Z,9.50
2023-04-22T05:46:04.355Z,9.80
2023-04-22T05:48:34.055Z,9.90
2023-04-22T05:51:04.652Z,10.00
2023-04-22T05:53:32.042Z,10.10
2023-04-22T05:56:01.644Z,10.30
2023-04-22T05:58:29.017Z,10.40
2023-04-22T06:01:01.226Z,10.50
2023-04-22T06:03:46.942Z,10.70
2023-04-22T06:06:14.468Z,10.80
2023-04-22T06:08:42.003Z,11.00
2023-04-22T06:11:09.372Z,11.10
2023-04-22T06:13:37.849Z,11.20
2023-04-22T06:18:38.128Z,11.50
2023-04-22T06:21:08.713Z,11.60
2023-04-22T06:23:37.008Z,11.70
2023-04-22T06:26:04.541Z,11.90
2023-04-22T06:28:32.004Z,12.00
2023-04-22T06:31:04.861Z,12.20
2023-04-22T06:33:32.054Z,12.30
2023-04-22T06:35:59.719Z,12.50
2023-04-22T06:38:27.666Z,12.70
2023-04-22T06:41:14.065Z,12.70
2023-04-22T06:43:44.631Z,13.00
2023-04-22T06:46:48.797Z,13.10
2023-04-22T06:49:38.594Z,13.30
2023-04-22T06:52:22.773Z,13.50
2023-04-22T06:54:53.252Z,13.60
2023-04-22T06:57:20.599Z,13.70
2023-04-22T06:59:47.854Z,13.80
2023-04-22T07:02:16.029Z,13.90
2023-04-22T07:04:44.440Z,14.00
2023-04-22T07:07:12.082Z,14.10
2023-04-22T07:09:39.830Z,14.20
2023-04-22T07:12:07.301Z,14.30
2023-04-22T07:14:34.550Z,14.50
2023-04-22T07:17:01.674Z,14.60
2023-04-22T07:19:30.037Z,14.70
2023-04-22T07:21:57.237Z,14.80
2023-04-22T07:24:24.409Z,14.90
2023-04-22T07:26:51.640Z,15.00
2023-04-22T07:29:18.834Z,15.10
2023-04-22T07:31:46.102Z,15.20
2023-04-22T07:34:14.206Z,15.30
2023-04-22T07:36:41.568Z,15.40
2023-04-22T07:39:09.607Z,15.50
2023-04-22T07:41:36.769Z,15.60
2023-04-22T07:44:03.990Z,15.70
2023-04-22T07:46:31.314Z,15.90
2023-04-22T07:48:58.659Z,15.90
2023-04-22T07:51:25.932Z,16.00
2023-04-22T07:53:53.111Z,16.20
2023-04-22T07:56:20.313Z,16.20
2023-04-22T07:58:47.524Z,16.30
2023-04-22T08:01:14.721Z,16.30
2023-04-22T08:03:42.141Z,16.50
2023-04-22T08:06:09.518Z,16.60
2023-04-22T08:08:36.718Z,16.70
2023-04-22T08:11:04.114Z,16.80
2023-04-22T08:13:31.328Z,16.90
2023-04-22T08:15:59.863Z,16.90
2023-04-22T08:18:27.074Z,17.00
2023-04-22T08:20:54.220Z,17.10
2023-04-22T08:23:21.526Z,17.20
2023-04-22T08:25:49.283Z,17.30
2023-04-22T08:28:16.446Z,17.40
2023-04-22T08:30:43.697Z,17.50
2023-04-22T08:33:11.804Z,17.60
2023-04-22T08:35:40.626Z,17.70
2023-04-22T08:38:07.878Z,17.80
2023-04-22T08:40:35.784Z,17.70
2023-04-22T08:43:03.063Z,17.80
2023-04-22T08:45:30.919Z,17.90
2023-04-22T08:47:58.476Z,18.00
2023-04-22T08:50:26.141Z,18.20
2023-04-22T08:52:53.388Z,18.30
2023-04-22T08:55:20.807Z,18.40
2023-04-22T08:57:48.183Z,18.60
2023-04-22T09:00:16.371Z,18.60
2023-04-22T09:02:45.059Z,18.70
2023-04-22T09:05:14.858Z,18.70
2023-04-22T09:07:42.306Z,18.80
2023-04-22T09:10:11.730Z,18.90
2023-04-22T09:12:40.755Z,18.80
2023-04-22T09:15:09.245Z,18.90
2023-04-22T09:17:38.935Z,18.90
2023-04-22T09:20:07.714Z,19.10
2023-04-22T09:22:41.090Z,19.10
2023-04-22T09:25:17.482Z,19.30
2023-04-22T09:27:49.752Z,19.50
2023-04-22T09:30:19.666Z,19.50
2023-04-22T09:32:55.004Z,19.50
2023-04-22T09:35:29.071Z,19.50
2023-04-22T09:37:58.842Z,19.50
2023-04-22T09:40:26.753Z,19.60
2023-04-22T09:42:56.048Z,19.70
2023-04-22T09:45:32.109Z,19.70
2023-04-22T09:48:09.203Z,19.90
2023-04-22T09:50:38.322Z,20.00
2023-04-22T09:53:08.962Z,20.10
2023-04-22T09:55:39.692Z,20.20
2023-04-22T09:58:09.852Z,20.30
2023-04-22T10:00:46.964Z,20.50
2023-04-22T10:03:14.956Z,20.60
2023-04-22T10:05:42.593Z,20.60
2023-04-22T10:08:10.774Z,20.60
2023-04-22T10:10:38.852Z,20.60
2023-04-22T10:13:06.683Z,20.60
2023-04-22T10:15:54.850Z,20.50
2023-04-22T10:18:24.938Z,20.40
2023-04-22T10:20:56.023Z,20.40
2023-04-22T10:23:24.661Z,20.50
2023-04-22T10:25:55.705Z,20.50
2023-04-22T10:28:27.704Z,20.50
2023-04-22T10:30:55.100Z,20.50
2023-04-22T10:33:27.590Z,20.50
2023-04-22T10:36:10.423Z,20.50
2023-04-22T10:38:40.198Z,20.60
2023-04-22T10:41:13.582Z,20.70
2023-04-22T10:43:48.313Z,20.70
2023-04-22T10:46:42.499Z,20.80
2023-04-22T10:49:15.561Z,20.90
2023-04-22T10:51:50.366Z,21.00
2023-04-22T10:54:32.375Z,21.00
2023-04-22T10:57:04.725Z,21.00
2023-04-22T10:59:34.205Z,21.10
2023-04-22T11:02:06.614Z,21.20
2023-04-22T11:04:34.357Z,21.30
2023-04-22T11:07:27.320Z,21.40
2023-04-22T11:10:08.019Z,21.50
2023-04-22T11:12:35.258Z,21.50
2023-04-22T11:15:09.819Z,21.60
2023-04-22T11:17:38.289Z,21.60
2023-04-22T11:20:07.089Z,21.70
2023-04-22T11:22:42.446Z,21.70
2023-04-22T11:25:10.311Z,21.80
2023-04-22T11:27:38.282Z,21.90
2023-04-22T11:30:10.830Z,21.90
2023-04-22T11:32:39.906Z,22.00
2023-04-22T11:35:12.461Z,22.10
2023-04-22T11:37:46.688Z,22.10
2023-04-22T11:40:30.040Z,22.30
2023-04-22T11:43:01.155Z,22.40
2023-04-22T11:45:32.765Z,22.40
2023-04-22T11:48:01.739Z,22.40
2023-04-22T11:50:48.176Z,22.40
2023-04-22T11:53:25.436Z,22.30
2023-04-22T11:55:52.814Z,22.30
2023-04-22T11:58:24.963Z,22.40
2023-04-22T12:00:53.576Z,22.30
2023-04-22T12:03:28.998Z,22.30
2023-04-22T12:06:01.823Z,22.40
2023-04-22T12:08:36.989Z,22.40
2023-04-22T12:11:07.142Z,22.50
2023-04-22T12:13:42.736Z,22.60
2023-04-22T12:16:12.262Z,22.70
2023-04-22T12:18:41.156Z,22.80
2023-04-22T12:21:12.656Z,22.90
2023-04-22T12:23:45.766Z,23.20
2023-04-22T12:26:13.662Z,23.40
2023-04-22T12:28:42.202Z,23.50
2023-04-22T12:31:10.542Z,23.30
2023-04-22T12:33:38.495Z,23.10
2023-04-22T12:36:07.335Z,23.10
2023-04-22T12:38:35.121Z,23.10
2023-04-22T12:41:03.541Z,23.10
2023-04-22T12:43:32.239Z,23.00
2023-04-22T12:45:59.553Z,23.00
2023-04-22T12:48:26.737Z,23.10
2023-04-22T12:50:53.915Z,23.20
2023-04-22T12:53:21.855Z,23.20
2023-04-22T12:55:49.192Z,23.30
2023-04-22T12:58:16.419Z,23.50
2023-04-22T13:00:43.607Z,23.30
2023-04-22T13:03:11.373Z,23.30
2023-04-22T13:05:39.901Z,23.20
2023-04-22T13:08:08.185Z,23.20
2023-04-22T13:10:36.021Z,23.20
2023-04-22T13:13:17.066Z,23.30
2023-04-22T13:15:47.619Z,23.30
2023-04-22T13:18:16.623Z,23.40
2023-04-22T13:20:44.055Z,23.50
2023-04-22T13:23:12.810Z,23.40
2023-04-22T13:25:40.015Z,23.30
2023-04-22T13:28:07.211Z,23.30
2023-04-22T13:30:34.387Z,23.30
2023-04-22T13:33:01.602Z,23.40
2023-04-22T13:35:28.769Z,23.40
2023-04-22T13:37:56.236Z,23.40
2023-04-22T13:40:23.445Z,23.40
2023-04-22T13:42:50.620Z,23.50
2023-04-22T13:45:17.840Z,23.60
2023-04-22T13:47:45.230Z,23.70
2023-04-22T13:50:12.432Z,23.80
2023-04-22T13:52:39.673Z,23.90
2023-04-22T13:55:07.417Z,23.80
2023-04-22T13:57:34.659Z,23.90
2023-04-22T14:00:02.125Z,23.90
2023-04-22T14:02:39.283Z,23.90
2023-04-22T14:05:07.460Z,23.90
2023-04-22T14:07:34.751Z,23.90
2023-04-22T14:10:01.956Z,23.90
2023-04-22T14:12:38.520Z,23.80
2023-04-22T14:15:06.486Z,23.90
2023-04-22T14:17:33.765Z,23.90
2023-04-22T14:20:00.956Z,23.90
2023-04-22T14:22:28.153Z,23.70
2023-04-22T14:24:55.685Z,23.70
2023-04-22T14:27:23.070Z,23.70
2023-04-22T14:29:52.356Z,23.70
2023-04-22T14:32:20.494Z,23.70
2023-04-22T14:34:48.309Z,23.80
2023-04-22T14:37:15.499Z,23.80
2023-04-22T14:39:42.847Z,23.70
2023-04-22T14:42:10.138Z,23.70
2023-04-22T14:44:37.404Z,23.70
2023-04-22T14:47:04.866Z,23.50
2023-04-22T14:49:33.362Z,23.30
2023-04-22T14:52:01.682Z,23.40
2023-04-22T14:54:28.947Z,23.30
2023-04-22T14:56:56.375Z,23.40
2023-04-22T14:59:23.536Z,23.20
2023-04-22T15:01:50.945Z,23.10
2023-04-22T15:04:19.159Z,23.00
2023-04-22T15:06:46.452Z,23.00
2023-04-22T15:09:15.382Z,23.00
2023-04-22T15:11:42.557Z,23.00
2023-04-22T15:14:09.694Z,23.00
2023-04-22T15:16:36.886Z,22.90
2023-04-22T15:19:04.110Z,22.90
2023-04-22T15:21:31.999Z,22.90
2023-04-22T15:23:59.143Z,22.80
2023-04-22T15:26:26.336Z,22.70
2023-04-22T15:28:53.598Z,22.60
2023-04-22T15:31:20.984Z,22.60
2023-04-22T15:33:48.219Z,22.60
2023-04-22T15:36:18.093Z,22.70
2023-04-22T15:38:45.304Z,22.60
2023-04-22T15:41:12.715Z,22.60
2023-04-22T15:43:39.916Z,22.60
2023-04-22T15:46:08.394Z,22.60
2023-04-22T15:48:35.617Z,22.40
2023-04-22T15:51:02.821Z,22.50
2023-04-22T15:53:29.998Z,22.50
2023-04-22T15:55:57.973Z,22.50
2023-04-22T15:58:25.125Z,22.50
2023-04-22T16:00:52.545Z,22.50
2023-04-22T16:03:19.875Z,22.60
2023-04-22T16:05:47.213Z,22.50
2023-04-22T16:08:14.429Z,22.50
2023-04-22T16:10:41.598Z,22.40
2023-04-22T16:13:10.125Z,22.40
2023-04-22T16:15:37.774Z,22.20
2023-04-22T16:18:05.155Z,22.10
2023-04-22T16:20:32.495Z,22.10
2023-04-22T16:22:59.685Z,22.10
2023-04-22T16:25:27.972Z,22.10
2023-04-22T16:27:55.658Z,22.00
2023-04-22T16:30:23.329Z,22.00
2023-04-22T16:32:50.736Z,22.10
2023-04-22T16:35:18.220Z,21.90
2023-04-22T16:37:46.749Z,22.00
2023-04-22T16:40:14.128Z,21.80
2023-04-22T16:42:41.271Z,21.80
2023-04-22T16:45:08.808Z,21.70
2023-04-22T16:47:36.082Z,21.70
2023-04-22T16:50:03.696Z,21.70
2023-04-22T16:52:31.088Z,21.70
2023-04-22T16:54:58.506Z,21.70
2023-04-22T16:57:25.861Z,21.70
2023-04-22T16:59:53.050Z,21.60
2023-04-22T17:02:20.308Z,21.60
2023-04-22T17:04:47.562Z,21.60
2023-04-22T17:07:14.730Z,21.50
2023-04-22T17:09:42.253Z,21.40
2023-04-22T17:12:09.837Z,21.30
2023-04-22T17:14:36.965Z,21.30
2023-04-22T17:17:04.111Z,21.20
2023-04-22T17:19:31.466Z,21.20
2023-04-22T17:21:58.751Z,21.10
2023-04-22T17:24:25.991Z,21.10
2023-04-22T17:26:53.228Z,21.00
2023-04-22T17:29:21.589Z,20.90
2023-04-22T17:31:49.978Z,20.80
2023-04-22T17:34:17.220Z,20.80
2023-04-22T17:36:44.363Z,20.80
2023-04-22T17:39:11.775Z,20.70
2023-04-22T17:41:39.024Z,20.60
2023-04-22T17:44:08.724Z,20.60
2023-04-22T17:46:36.006Z,20.40
2023-04-22T17:49:03.452Z,20.30
2023-04-22T17:51:31.410Z,20.20
2023-04-22T17:54:00.628Z,20.10
2023-04-22T17:56:27.958Z,20.10
2023-04-22T17:58:55.272Z,20.00
2023-04-22T18:01:22.585Z,19.90
2023-04-22T18:03:49.872Z,19.80
2023-04-22T18:06:17.092Z,19.70
2023-04-22T18:08:44.243Z,19.70
2023-04-22T18:11:11.512Z,19.60
2023-04-22T18:13:39.318Z,19.50
2023-04-22T18:16:06.784Z,19.50
2023-04-22T18:18:33.945Z,19.40
2023-04-22T18:21:01.233Z,19.40
2023-04-22T18:23:28.871Z,19.40
2023-04-22T18:25:56.280Z,19.30
2023-04-22T18:28:23.475Z,19.20
2023-04-22T18:30:50.693Z,19.10
2023-04-22T18:33:17.851Z,19.00
2023-04-22T18:35:45.109Z,18.80
2023-04-22T18:38:12.349Z,18.70
2023-04-22T18:40:40.897Z,18.60
2023-04-22T18:43:08.519Z,18.70
2023-04-22T18:45:35.726Z,18.60
2023-04-22T18:48:03.045Z,18.60
2023-04-22T18:53:26.796Z,18.60
2023-04-22T18:55:53.988Z,18.50
2023-04-22T18:58:23.196Z,18.50
2023-04-22T19:00:51.327Z,18.50
2023-04-22T19:03:19.502Z,18.50
2023-04-22T19:05:46.845Z,18.40
2023-04-22T19:08:14.013Z,18.30
2023-04-22T19:10:41.382Z,18.40
2023-04-22T19:13:15.849Z,18.30
2023-04-22T19:15:45.958Z,18.30
2023-04-22T19:18:13.226Z,18.10
2023-04-22T19:20:40.420Z,18.00
2023-04-22T19:23:07.707Z,18.10
2023-04-22T19:25:36.553Z,18.00
2023-04-22T19:28:03.930Z,18.00
2023-04-22T19:30:31.305Z,18.00
2023-04-22T19:32:58.665Z,18.00
2023-04-22T19:35:27.142Z,18.00
2023-04-22T19:37:54.314Z,17.90
2023-04-22T19:40:21.532Z,17.80
2023-04-22T19:42:48.733Z,17.70
2023-04-22T19:45:16.048Z,17.70
2023-04-22T19:47:43.472Z,17.70
2023-04-22T19:50:11.244Z,17.70
2023-04-22T19:52:40.293Z,17.70
2023-04-22T19:55:09.254Z,17.60
2023-04-22T19:57:38.258Z,17.60
2023-04-22T20:00:10.634Z,17.60
2023-04-22T20:02:42.487Z,17.50
2023-04-22T20:05:10.220Z,17.40
2023-04-22T20:07:38.174Z,17.40
2023-04-22T20:10:08.534Z,17.40
2023-04-22T20:12:36.852Z,17.40
2023-04-22T20:15:07.652Z,17.30
2023-04-22T20:17:38.454Z,17.20
2023-04-22T20:20:07.329Z,17.10
2023-04-22T20:22:35.175Z,17.10
2023-04-22T20:25:05.343Z,17.10
2023-04-22T20:27:33.802Z,17.00
2023-04-22T20:30:02.036Z,16.90
2023-04-22T20:32:30.071Z,16.90
2023-04-22T20:34:58.247Z,16.90
2023-04-22T20:37:27.009Z,16.70
2023-04-22T20:39:54.576Z,16.70
2023-04-22T20:42:22.044Z,16.70
2023-04-22T20:44:49.478Z,16.70
2023-04-22T20:47:16.802Z,16.60
2023-04-22T20:49:44.073Z,16.60
2023-04-22T20:52:12.080Z,16.60
2023-04-22T20:54:39.838Z,16.50
2023-04-22T20:57:07.380Z,16.60
2023-04-22T20:59:35.342Z,16.50
2023-04-22T21:02:04.343Z,16.40
2023-04-22T21:04:32.065Z,16.40
2023-04-22T21:07:03.836Z,16.40
2023-04-22T21:09:32.836Z,16.30
2023-04-22T21:12:00.994Z,16.30
2023-04-22T21:14:28.589Z,16.30
2023-04-22T21:17:14.898Z,16.30
2023-04-22T21:19:48.183Z,16.30
2023-04-22T21:22:19.398Z,16.30
2023-04-22T21:24:52.029Z,16.20
2023-04-22T21:27:21.649Z,16.20
2023-04-22T21:29:49.438Z,16.10
2023-04-22T21:32:17.540Z,16.00
2023-04-22T21:34:45.122Z,16.00
2023-04-22T21:37:13.327Z,15.90
2023-04-22T21:39:40.821Z,15.90
2023-04-22T21:42:08.890Z,15.80
2023-04-22T21:44:37.453Z,15.80
2023-04-22T21:47:05.829Z,15.80
2023-04-22T21:49:33.113Z,15.80
2023-04-22T21:52:00.974Z,15.70
2023-04-22T21:54:28.166Z,15.70
2023-04-22T21:56:56.214Z,15.70
2023-04-22T21:59:24.678Z,15.70
2023-04-22T22:01:52.055Z,15.70
2023-04-22T22:04:19.639Z,15.60
2023-04-22T22:06:46.862Z,15.60
2023-04-22T22:09:14.542Z,15.60
2023-04-22T22:11:41.775Z,15.50
2023-04-22T22:14:08.951Z,15.50
2023-04-22T22:16:38.171Z,15.40
2023-04-22T22:19:06.301Z,15.30
2023-04-22T22:21:33.470Z,15.20
2023-04-22T22:24:00.683Z,15.00
2023-04-22T22:26:29.065Z,15.00
2023-04-22T22:28:56.740Z,14.90
2023-04-22T22:31:24.201Z,14.90
2023-04-22T22:33:51.684Z,14.90
2023-04-22T22:36:19.389Z,14.90
2023-04-22T22:38:46.634Z,14.90
2023-04-22T22:41:14.196Z,15.00
2023-04-22T22:43:41.476Z,15.00
2023-04-22T22:46:09.011Z,15.00
2023-04-22T22:48:36.757Z,15.00
2023-04-22T22:51:04.067Z,15.00
2023-04-22T22:53:33.034Z,15.00
2023-04-22T22:56:00.394Z,15.00
2023-04-22T22:58:27.955Z,15.10
2023-04-22T23:00:55.226Z,15.10
2023-04-22T23:03:23.164Z,15.10
2023-04-22T23:05:50.497Z,15.10
2023-04-22T23:08:17.722Z,15.20
2023-04-22T23:10:45.219Z,15.10
2023-04-22T23:13:12.476Z,15.20
2023-04-22T23:15:39.965Z,15.20
2023-04-22T23:18:08.973Z,15.10
2023-04-22T23:20:36.889Z,15.10
2023-04-22T23:23:05.313Z,15.10
2023-04-22T23:25:33.053Z,15.10
2023-04-22T23:28:00.790Z,15.10
2023-04-22T23:30:28.383Z,15.00
2023-04-22T23:32:57.627Z,15.00
2023-04-22T23:35:27.320Z,14.90
2023-04-22T23:37:56.932Z,14.90
2023-04-22T23:40:24.289Z,15.00
2023-04-22T23:42:51.652Z,14.80
2023-04-22T23:45:18.949Z,15.00
2023-04-22T23:47:46.348Z,15.00
2023-04-22T23:50:14.096Z,14.90
2023-04-22T23:52:43.143Z,14.90
2023-04-22T23:55:11.799Z,15.40
2023-04-22T23:57:39.332Z,14.80
